createdAt,value
2022-10-22T00:01:51.811Z,14.55
2022-10-22T00:04:20.225Z,14.73
2022-10-22T00:06:48.515Z,16.05
2022-10-22T00:09:17.196Z,16.00
2022-10-22T00:11:45.513Z,15.05
2022-10-22T00:14:13.954Z,14.90
2022-10-22T00:16:42.144Z,14.70
2022-10-22T00:19:13.311Z,15.00
2022-10-22T00:21:41.538Z,13.90
2022-10-22T00:24:10.083Z,14.23
2022-10-22T00:26:39.839Z,16.55
2022-10-22T00:29:08.274Z,17.10
2022-10-22T00:31:36.969Z,16.10
2022-10-22T00:34:05.470Z,14.52
2022-10-22T00:36:35.134Z,14.48
2022-10-22T00:39:03.691Z,13.48
2022-10-22T00:41:31.985Z,14.63
2022-10-22T00:44:01.785Z,14.18
2022-10-22T00:46:30.373Z,13.57
2022-10-22T00:49:03.207Z,14.63
2022-10-22T00:51:36.241Z,13.55
2022-10-22T00:54:08.186Z,15.20
2022-10-22T00:56:36.996Z,14.27
2022-10-22T00:59:05.988Z,14.75
2022-10-22T01:01:34.277Z,14.75
2022-10-22T01:04:02.721Z,14.00
2022-10-22T01:06:34.152Z,14.65
2022-10-22T01:09:13.591Z,12.98
2022-10-22T01:11:52.850Z,14.35
2022-10-22T01:14:27.640Z,14.65
2022-10-22T01:17:01.424Z,14.73
2022-10-22T01:19:51.304Z,13.38
2022-10-22T01:22:23.120Z,12.27
2022-10-22T01:25:01.303Z,12.65
2022-10-22T01:27:46.962Z,13.98
2022-10-22T01:30:18.428Z,13.18
2022-10-22T01:32:51.210Z,13.45
2022-10-22T01:35:24.684Z,14.30
2022-10-22T01:37:56.863Z,12.40
2022-10-22T01:40:27.325Z,12.80
2022-10-22T01:42:58.023Z,13.48
2022-10-22T01:45:28.112Z,13.20
2022-10-22T01:48:05.823Z,13.43
2022-10-22T01:50:58.036Z,13.77
2022-10-22T01:53:36.117Z,14.73
2022-10-22T01:56:17.837Z,13.45
2022-10-22T01:58:53.514Z,14.50
2022-10-22T02:01:33.133Z,13.55
2022-10-22T02:04:06.422Z,14.20
2022-10-22T02:06:37.421Z,12.80
2022-10-22T02:09:07.137Z,13.82
2022-10-22T02:11:36.182Z,14.57
2022-10-22T02:14:06.264Z,13.77
2022-10-22T02:16:40.321Z,14.43
2022-10-22T02:19:14.948Z,13.75
2022-10-22T02:21:43.650Z,13.48
2022-10-22T02:24:12.069Z,13.95
2022-10-22T02:26:44.032Z,13.82
2022-10-22T02:29:15.533Z,13.40
2022-10-22T02:31:47.205Z,14.45
2022-10-22T02:34:21.466Z,13.55
2022-10-22T02:36:51.675Z,15.38
2022-10-22T02:39:21.630Z,15.02
2022-10-22T02:41:50.417Z,15.20
2022-10-22T02:44:22.964Z,15.05
2022-10-22T02:46:53.310Z,13.95
2022-10-22T02:49:21.630Z,13.68
2022-10-22T02:51:50.385Z,14.27
2022-10-22T02:54:18.942Z,14.40
2022-10-22T02:56:47.705Z,13.50
2022-10-22T02:59:15.966Z,13.82
2022-10-22T03:01:44.608Z,13.77
2022-10-22T03:04:14.285Z,15.38
2022-10-22T03:06:44.105Z,15.48
2022-10-22T03:09:12.711Z,16.30
2022-10-22T03:11:41.145Z,16.08
2022-10-22T03:14:09.635Z,14.93
2022-10-22T03:16:38.174Z,16.88
2022-10-22T03:19:06.348Z,14.13
2022-10-22T03:21:40.186Z,14.80
2022-10-22T03:24:12.864Z,14.60
2022-10-22T03:26:42.511Z,15.32
2022-10-22T03:29:12.308Z,14.90
2022-10-22T03:31:41.107Z,15.18
2022-10-22T03:34:09.307Z,14.43
2022-10-22T03:36:39.586Z,15.23
2022-10-22T03:39:08.960Z,16.27
2022-10-22T03:41:38.027Z,15.50
2022-10-22T03:44:07.021Z,16.33
2022-10-22T03:46:35.758Z,17.13
2022-10-22T03:49:04.104Z,16.83
2022-10-22T03:51:33.544Z,15.57
2022-10-22T03:54:03.438Z,14.95
2022-10-22T03:56:31.810Z,17.77
2022-10-22T03:59:01.557Z,15.30
2022-10-22T04:01:31.325Z,15.77
2022-10-22T04:04:00.157Z,16.17
2022-10-22T04:06:30.671Z,16.13
2022-10-22T04:08:58.932Z,14.15
2022-10-22T04:11:29.025Z,14.63
2022-10-22T04:13:57.225Z,14.88
2022-10-22T04:16:30.866Z,14.65
2022-10-22T04:18:59.528Z,13.95
2022-10-22T04:21:28.191Z,16.00
2022-10-22T04:23:56.372Z,15.23
2022-10-22T04:26:25.381Z,15.55
2022-10-22T04:28:55.538Z,14.80
2022-10-22T04:31:26.111Z,13.65
2022-10-22T04:33:55.674Z,15.23
2022-10-22T04:36:24.666Z,14.15
2022-10-22T04:38:55.842Z,14.95
2022-10-22T04:41:26.896Z,14.82
2022-10-22T04:43:57.752Z,15.30
2022-10-22T04:46:28.054Z,15.63
2022-10-22T04:48:56.644Z,14.65
2022-10-22T04:51:26.783Z,15.55
2022-10-22T04:53:55.481Z,17.38
2022-10-22T04:56:25.797Z,15.68
2022-10-22T04:58:56.868Z,17.58
2022-10-22T05:01:27.472Z,16.52
2022-10-22T05:03:57.868Z,18.00
2022-10-22T05:06:26.742Z,16.55
2022-10-22T05:08:56.776Z,16.67
2022-10-22T05:11:30.638Z,17.17
2022-10-22T05:14:01.502Z,16.58
2022-10-22T05:16:31.069Z,17.25
2022-10-22T05:19:00.693Z,18.00
2022-10-22T05:21:29.428Z,17.08
2022-10-22T05:23:59.861Z,17.08
2022-10-22T05:26:29.801Z,16.70
2022-10-22T05:28:58.200Z,18.98
2022-10-22T05:31:28.833Z,16.52
2022-10-22T05:33:57.603Z,19.13
2022-10-22T05:36:26.034Z,18.40
2022-10-22T05:38:54.909Z,17.83
2022-10-22T05:41:24.713Z,17.73
2022-10-22T05:43:55.190Z,19.23
2022-10-22T05:46:25.252Z,18.55
2022-10-22T05:48:56.154Z,17.20
2022-10-22T05:51:25.824Z,19.38
2022-10-22T05:53:55.469Z,19.38
2022-10-22T05:56:24.360Z,17.83
2022-10-22T05:58:53.459Z,18.63
2022-10-22T06:01:24.324Z,19.45
2022-10-22T06:03:56.432Z,20.35
2022-10-22T06:06:29.383Z,17.92
2022-10-22T06:09:02.274Z,17.77
2022-10-22T06:11:34.178Z,18.55
2022-10-22T06:14:03.838Z,19.70
2022-10-22T06:16:32.911Z,20.30
2022-10-22T06:19:03.225Z,19.50
2022-10-22T06:21:32.155Z,20.00
2022-10-22T06:24:01.635Z,18.42
2022-10-22T06:26:30.474Z,18.58
2022-10-22T06:28:59.231Z,19.85
2022-10-22T06:31:28.612Z,20.23
2022-10-22T06:33:58.260Z,20.92
2022-10-22T06:36:28.190Z,18.58
2022-10-22T06:38:57.316Z,19.63
2022-10-22T06:41:28.747Z,18.88
2022-10-22T06:43:58.737Z,20.17
2022-10-22T06:46:27.964Z,20.38
2022-10-22T06:48:58.130Z,20.55
2022-10-22T06:51:29.014Z,19.30
2022-10-22T06:53:58.940Z,20.85
2022-10-22T06:56:29.255Z,19.02
2022-10-22T06:58:59.404Z,21.50
2022-10-22T07:01:30.640Z,20.40
2022-10-22T07:03:58.977Z,20.75
2022-10-22T07:06:29.983Z,20.92
2022-10-22T07:09:00.692Z,19.13
2022-10-22T07:11:31.946Z,21.80
2022-10-22T07:14:01.575Z,21.70
2022-10-22T07:16:32.493Z,20.00
2022-10-22T07:19:01.233Z,20.00
2022-10-22T07:21:31.970Z,19.05
2022-10-22T07:24:00.333Z,19.42
2022-10-22T07:26:30.969Z,19.55
2022-10-22T07:29:00.246Z,19.45
2022-10-22T07:31:29.151Z,19.27
2022-10-22T07:33:57.464Z,19.67
2022-10-22T07:36:25.886Z,19.17
2022-10-22T07:38:59.961Z,19.23
2022-10-22T07:41:29.781Z,20.65
2022-10-22T07:43:59.383Z,19.73
2022-10-22T07:46:28.240Z,19.80
2022-10-22T07:48:56.606Z,20.33
2022-10-22T07:51:25.072Z,19.38
2022-10-22T07:53:53.295Z,19.52
2022-10-22T07:56:23.255Z,19.88
2022-10-22T07:58:51.610Z,19.98
2022-10-22T08:01:20.050Z,20.70
2022-10-22T08:03:48.861Z,20.60
2022-10-22T08:06:17.941Z,20.10
2022-10-22T08:08:46.784Z,19.10
2022-10-22T08:11:15.388Z,19.45
2022-10-22T08:13:45.813Z,20.00
2022-10-22T08:16:14.924Z,20.38
2022-10-22T08:18:43.480Z,20.27
2022-10-22T08:21:12.403Z,20.95
2022-10-22T08:23:40.689Z,19.33
2022-10-22T08:26:09.268Z,19.17
2022-10-22T08:28:37.929Z,19.20
2022-10-22T08:31:09.074Z,19.13
2022-10-22T08:33:39.349Z,18.65
2022-10-22T08:36:08.709Z,18.42
2022-10-22T08:38:37.504Z,19.63
2022-10-22T08:41:12.602Z,19.50
2022-10-22T08:43:59.309Z,20.60
2022-10-22T08:46:40.883Z,19.27
2022-10-22T08:49:18.226Z,20.70
2022-10-22T08:51:46.698Z,20.50
2022-10-22T08:54:23.655Z,20.63
2022-10-22T08:57:00.418Z,18.23
2022-10-22T08:59:35.098Z,20.88
2022-10-22T09:02:15.961Z,18.98
2022-10-22T09:04:49.183Z,18.52
2022-10-22T09:07:18.010Z,18.92
2022-10-22T09:09:52.019Z,19.83
2022-10-22T09:12:29.603Z,18.73
2022-10-22T09:14:57.959Z,18.52
2022-10-22T09:17:35.686Z,21.65
2022-10-22T09:20:12.721Z,20.05
2022-10-22T09:22:47.251Z,17.40
2022-10-22T09:25:20.968Z,17.63
2022-10-22T09:27:50.342Z,16.75
2022-10-22T09:30:20.549Z,18.05
2022-10-22T09:32:53.175Z,16.10
2022-10-22T09:35:25.389Z,16.13
2022-10-22T09:37:56.060Z,16.73
2022-10-22T09:40:24.862Z,16.77
2022-10-22T09:42:53.318Z,16.58
2022-10-22T09:45:25.274Z,16.65
2022-10-22T09:48:11.523Z,17.15
2022-10-22T09:50:49.207Z,17.30
2022-10-22T09:53:27.490Z,17.50
2022-10-22T09:55:58.436Z,17.25
2022-10-22T09:58:28.151Z,20.73
2022-10-22T10:01:00.049Z,19.92
2022-10-22T10:03:33.515Z,20.35
2022-10-22T10:06:05.899Z,19.42
2022-10-22T10:08:35.451Z,18.38
2022-10-22T10:11:11.717Z,18.23
2022-10-22T10:13:48.381Z,18.67
2022-10-22T10:16:32.068Z,20.60
2022-10-22T10:19:18.416Z,18.52
2022-10-22T10:21:56.294Z,20.15
2022-10-22T10:24:30.992Z,18.55
2022-10-22T10:27:04.645Z,18.63
2022-10-22T10:29:51.510Z,18.63
2022-10-22T10:32:37.641Z,17.95
2022-10-22T10:35:19.305Z,19.20
2022-10-22T10:40:38.022Z,19.25
2022-10-22T10:43:14.821Z,18.45
2022-10-22T10:45:55.640Z,20.13
2022-10-22T10:48:44.745Z,19.60
2022-10-22T10:51:25.971Z,18.77
2022-10-22T10:54:17.258Z,20.65
2022-10-22T10:56:49.254Z,19.75
2022-10-22T10:59:32.975Z,18.02
2022-10-22T11:02:18.093Z,18.85
2022-10-22T11:05:23.176Z,18.02
2022-10-22T11:07:59.145Z,18.58
2022-10-22T11:10:32.883Z,17.33
2022-10-22T11:13:09.631Z,18.85
2022-10-22T11:15:40.585Z,17.50
2022-10-22T11:18:18.516Z,18.25
2022-10-22T11:20:54.805Z,17.35
2022-10-22T11:23:31.275Z,18.42
2022-10-22T11:26:01.430Z,19.20
2022-10-22T11:28:35.335Z,17.45
2022-10-22T11:31:05.483Z,17.98
2022-10-22T11:33:43.684Z,17.38
2022-10-22T11:36:12.642Z,17.15
2022-10-22T11:38:42.983Z,17.70
2022-10-22T11:41:15.190Z,18.70
2022-10-22T11:43:58.428Z,18.33
2022-10-22T11:46:35.023Z,17.45
2022-10-22T11:49:16.370Z,20.17
2022-10-22T11:51:46.263Z,18.05
2022-10-22T11:54:32.623Z,18.63
2022-10-22T11:57:19.953Z,18.52
2022-10-22T11:59:54.119Z,19.92
2022-10-22T12:02:42.044Z,19.77
2022-10-22T12:05:34.152Z,20.17
2022-10-22T12:08:15.925Z,19.35
2022-10-22T12:11:14.961Z,19.42
2022-10-22T12:13:58.665Z,20.27
2022-10-22T12:16:43.869Z,19.98
2022-10-22T12:19:19.185Z,21.73
2022-10-22T12:21:50.952Z,20.35
2022-10-22T12:24:21.574Z,53.75
2022-10-22T12:26:52.779Z,20.25
2022-10-22T12:29:25.628Z,19.92
2022-10-22T12:31:54.968Z,16.85
2022-10-22T12:34:24.864Z,18.67
2022-10-22T12:36:54.895Z,19.33
2022-10-22T12:39:27.061Z,16.98
2022-10-22T12:41:56.890Z,16.65
2022-10-22T12:44:25.328Z,16.70
2022-10-22T12:46:56.985Z,16.13
2022-10-22T12:49:34.331Z,15.70
2022-10-22T12:52:07.680Z,14.95
2022-10-22T12:54:39.306Z,14.85
2022-10-22T12:57:14.262Z,15.25
2022-10-22T12:59:47.265Z,14.98
2022-10-22T13:02:22.614Z,14.23
2022-10-22T13:05:21.563Z,15.50
2022-10-22T13:07:52.318Z,15.48
2022-10-22T13:10:26.358Z,15.52
2022-10-22T13:12:58.797Z,13.13
2022-10-22T13:15:39.743Z,14.43
2022-10-22T13:18:17.854Z,15.32
2022-10-22T13:20:57.314Z,15.02
2022-10-22T13:23:28.051Z,13.35
2022-10-22T13:26:01.977Z,12.63
2022-10-22T13:28:32.855Z,12.93
2022-10-22T13:31:02.994Z,14.38
2022-10-22T13:33:35.479Z,13.68
2022-10-22T13:36:04.683Z,14.80
2022-10-22T13:38:33.589Z,15.88
2022-10-22T13:41:03.237Z,12.85
2022-10-22T13:43:33.187Z,14.05
2022-10-22T13:46:01.884Z,13.25
2022-10-22T13:48:31.494Z,13.32
2022-10-22T13:50:59.799Z,17.00
2022-10-22T13:53:29.918Z,17.45
2022-10-22T13:55:58.263Z,16.85
2022-10-22T13:58:26.709Z,15.73
2022-10-22T14:00:58.750Z,15.77
2022-10-22T14:03:30.939Z,17.48
2022-10-22T14:05:59.341Z,14.82
2022-10-22T14:08:29.035Z,14.10
2022-10-22T14:10:57.780Z,13.93
2022-10-22T14:13:26.706Z,15.02
2022-10-22T14:15:56.606Z,15.57
2022-10-22T14:18:29.050Z,15.98
2022-10-22T14:21:00.026Z,17.60
2022-10-22T14:23:31.541Z,15.82
2022-10-22T14:26:01.009Z,17.67
2022-10-22T14:28:31.381Z,18.75
2022-10-22T14:31:01.453Z,15.98
2022-10-22T14:33:33.584Z,16.42
2022-10-22T14:36:02.045Z,16.17
2022-10-22T14:38:30.939Z,17.15
2022-10-22T14:41:00.965Z,16.88
2022-10-22T14:43:31.236Z,16.10
2022-10-22T14:46:00.978Z,18.80
2022-10-22T14:48:29.702Z,16.63
2022-10-22T14:50:57.998Z,15.50
2022-10-22T14:53:26.518Z,16.35
2022-10-22T14:55:58.472Z,18.38
2022-10-22T14:58:27.291Z,17.20
2022-10-22T15:00:55.663Z,17.08
2022-10-22T15:03:25.429Z,21.08
2022-10-22T15:05:55.815Z,18.45
2022-10-22T15:08:25.409Z,18.40
2022-10-22T15:11:00.817Z,18.08
2022-10-22T15:13:30.573Z,17.40
2022-10-22T15:16:00.169Z,17.98
2022-10-22T15:18:30.345Z,17.73
2022-10-22T15:21:00.920Z,20.95
2022-10-22T15:23:30.117Z,19.23
2022-10-22T15:25:58.917Z,17.95
2022-10-22T15:28:27.453Z,19.17
2022-10-22T15:30:57.924Z,17.55
2022-10-22T15:33:27.148Z,17.52
2022-10-22T15:35:57.853Z,19.40
2022-10-22T15:41:05.446Z,16.77
2022-10-22T15:43:34.778Z,16.98
2022-10-22T15:46:14.033Z,18.67
2022-10-22T15:48:43.194Z,19.10
2022-10-22T15:51:15.105Z,19.20
2022-10-22T15:53:44.036Z,17.75
2022-10-22T15:56:12.689Z,17.73
2022-10-22T15:58:41.262Z,17.65
2022-10-22T16:01:11.389Z,18.02
2022-10-22T16:03:40.198Z,18.73
2022-10-22T16:06:09.723Z,17.23
2022-10-22T16:08:40.119Z,18.20
2022-10-22T16:11:08.545Z,17.88
2022-10-22T16:13:37.636Z,18.48
2022-10-22T16:16:08.063Z,16.85
2022-10-22T16:18:36.655Z,19.50
2022-10-22T16:21:05.290Z,16.55
2022-10-22T16:23:34.677Z,17.77
2022-10-22T16:26:04.419Z,16.10
2022-10-22T16:31:06.051Z,19.85
2022-10-22T16:33:41.477Z,21.30
2022-10-22T16:36:14.211Z,20.02
2022-10-22T16:38:42.915Z,19.00
2022-10-22T16:41:14.349Z,17.33
2022-10-22T16:43:44.266Z,17.13
2022-10-22T16:46:13.642Z,17.30
2022-10-22T16:48:46.012Z,19.95
2022-10-22T16:51:16.181Z,18.58
2022-10-22T16:53:44.747Z,18.65
2022-10-22T16:56:16.170Z,17.75
2022-10-22T16:58:45.788Z,18.15
2022-10-22T17:01:17.806Z,17.55
2022-10-22T17:03:46.884Z,17.05
2022-10-22T17:06:15.902Z,18.25
2022-10-22T17:08:44.877Z,16.75
2022-10-22T17:11:17.353Z,16.58
2022-10-22T17:13:46.827Z,16.42
2022-10-22T17:16:17.020Z,20.00
2022-10-22T17:21:20.320Z,17.83
2022-10-22T17:23:49.243Z,18.75
2022-10-22T17:26:22.179Z,18.60
2022-10-22T17:28:51.124Z,16.20
2022-10-22T17:31:21.519Z,19.80
2022-10-22T17:33:52.197Z,18.17
2022-10-22T17:36:21.833Z,17.85
2022-10-22T17:38:51.867Z,17.45
2022-10-22T17:41:23.310Z,16.90
2022-10-22T17:43:52.184Z,18.92
2022-10-22T17:46:23.013Z,23.65
2022-10-22T17:48:52.307Z,19.70
2022-10-22T17:51:21.419Z,22.42
2022-10-22T17:53:51.225Z,21.38
2022-10-22T17:56:23.091Z,22.40
2022-10-22T17:58:52.263Z,21.58
2022-10-22T18:01:22.958Z,21.73
2022-10-22T18:03:52.116Z,22.83
2022-10-22T18:06:20.312Z,23.52
2022-10-22T18:08:49.080Z,23.30
2022-10-22T18:11:19.728Z,22.15
2022-10-22T18:13:51.887Z,19.50
2022-10-22T18:16:20.741Z,21.38
2022-10-22T18:18:50.951Z,21.48
2022-10-22T18:21:19.680Z,21.42
2022-10-22T18:23:48.577Z,21.10
2022-10-22T18:26:20.245Z,21.70
2022-10-22T18:28:53.073Z,21.52
2022-10-22T18:31:23.308Z,20.27
2022-10-22T18:33:51.945Z,20.17
2022-10-22T18:36:22.753Z,23.15
2022-10-22T18:38:51.792Z,22.83
2022-10-22T18:41:21.172Z,21.45
2022-10-22T18:43:53.500Z,23.48
2022-10-22T18:46:22.380Z,23.60
2022-10-22T18:48:53.080Z,21.55
2022-10-22T18:51:21.739Z,22.00
2022-10-22T18:54:04.527Z,21.80
2022-10-22T18:56:40.583Z,20.60
2022-10-22T18:59:18.223Z,22.50
2022-10-22T19:01:46.662Z,19.67
2022-10-22T19:04:15.238Z,23.65
2022-10-22T19:06:45.743Z,20.27
2022-10-22T19:09:14.906Z,21.60
2022-10-22T19:11:44.438Z,21.92
2022-10-22T19:14:19.335Z,21.58
2022-10-22T19:16:47.764Z,20.00
2022-10-22T19:19:19.049Z,20.90
2022-10-22T19:21:48.303Z,21.17
2022-10-22T19:24:18.191Z,18.90
2022-10-22T19:26:47.313Z,20.88
2022-10-22T19:29:20.187Z,19.52
2022-10-22T19:31:50.524Z,19.58
2022-10-22T19:34:19.572Z,21.08
2022-10-22T19:36:48.062Z,19.65
2022-10-22T19:39:18.077Z,20.75
2022-10-22T19:41:46.390Z,20.40
2022-10-22T19:44:14.966Z,18.75
2022-10-22T19:46:44.675Z,18.38
2022-10-22T19:49:13.351Z,20.63
2022-10-22T19:51:42.024Z,19.20
2022-10-22T19:54:18.347Z,19.83
2022-10-22T19:56:47.655Z,18.20
2022-10-22T19:59:16.683Z,19.42
2022-10-22T20:01:46.328Z,17.98
2022-10-22T20:04:17.016Z,19.95
2022-10-22T20:06:45.466Z,19.08
2022-10-22T20:09:14.407Z,19.23
2022-10-22T20:11:42.861Z,19.02
2022-10-22T20:14:11.689Z,21.05
2022-10-22T20:16:40.271Z,20.65
2022-10-22T20:19:13.458Z,20.65
2022-10-22T20:21:41.880Z,20.23
2022-10-22T20:24:12.243Z,21.90
2022-10-22T20:26:41.191Z,22.23
2022-10-22T20:29:11.669Z,22.38
2022-10-22T20:31:40.358Z,24.48
2022-10-22T20:34:10.551Z,24.00
2022-10-22T20:36:39.251Z,22.35
2022-10-22T20:39:09.186Z,24.05
2022-10-22T20:41:40.449Z,24.83
2022-10-22T20:44:13.540Z,20.80
2022-10-22T20:46:42.120Z,19.92
2022-10-22T20:49:14.151Z,22.30
2022-10-22T20:51:42.360Z,24.10
2022-10-22T20:54:11.392Z,22.23
2022-10-22T20:56:41.222Z,26.77
2022-10-22T20:59:12.098Z,25.30
2022-10-22T21:01:42.001Z,24.27
2022-10-22T21:04:12.037Z,23.58
2022-10-22T21:06:41.718Z,23.00
2022-10-22T21:09:11.682Z,23.05
2022-10-22T21:11:41.451Z,21.48
2022-10-22T21:14:11.746Z,21.85
2022-10-22T21:16:42.099Z,22.58
2022-10-22T21:19:12.173Z,22.30
2022-10-22T21:21:40.457Z,21.63
2022-10-22T21:24:09.134Z,22.35
2022-10-22T21:26:38.867Z,23.00
2022-10-22T21:29:07.251Z,22.75
2022-10-22T21:31:36.088Z,21.90
2022-10-22T21:34:04.783Z,20.83
2022-10-22T21:36:34.467Z,21.75
2022-10-22T21:39:03.206Z,21.75
2022-10-22T21:41:31.702Z,21.65
2022-10-22T21:44:00.876Z,24.25
2022-10-22T21:46:29.901Z,23.67
2022-10-22T21:49:01.408Z,21.42
2022-10-22T21:51:31.207Z,20.48
2022-10-22T21:54:01.135Z,21.77
2022-10-22T21:56:32.549Z,21.90
2022-10-22T21:59:02.074Z,21.83
2022-10-22T22:01:30.457Z,22.45
2022-10-22T22:03:59.829Z,21.65
2022-10-22T22:06:33.020Z,23.13
2022-10-22T22:09:05.989Z,24.95
2022-10-22T22:11:34.321Z,23.65
2022-10-22T22:14:03.056Z,24.60
2022-10-22T22:16:33.187Z,23.63
2022-10-22T22:21:39.171Z,24.20
2022-10-22T22:24:12.843Z,22.40
2022-10-22T22:26:42.605Z,22.00
2022-10-22T22:29:11.938Z,20.48
2022-10-22T22:31:40.312Z,20.52
2022-10-22T22:34:12.776Z,22.00
2022-10-22T22:36:42.861Z,21.25
2022-10-22T22:39:14.807Z,19.40
2022-10-22T22:41:43.182Z,18.80
2022-10-22T22:44:11.667Z,18.40
2022-10-22T22:46:39.973Z,17.48
2022-10-22T22:49:09.582Z,17.40
2022-10-22T22:51:37.838Z,17.02
2022-10-22T22:54:06.238Z,18.52
2022-10-22T22:56:35.843Z,16.45
2022-10-22T22:59:05.425Z,18.33
2022-10-22T23:01:36.255Z,16.77
2022-10-22T23:04:06.994Z,16.20
2022-10-22T23:06:37.768Z,16.00
2022-10-22T23:09:07.440Z,17.00
2022-10-22T23:11:37.705Z,19.38
2022-10-22T23:14:08.136Z,16.38
2022-10-22T23:16:38.375Z,16.70
2022-10-22T23:19:07.220Z,16.58
2022-10-22T23:21:38.721Z,17.50
2022-10-22T23:24:12.120Z,19.00
2022-10-22T23:26:45.350Z,17.15
2022-10-22T23:29:15.465Z,18.45
2022-10-22T23:31:44.099Z,19.55
2022-10-22T23:34:14.582Z,17.15
2022-10-22T23:36:42.916Z,18.10
2022-10-22T23:39:12.512Z,18.77
2022-10-22T23:41:43.097Z,20.42
2022-10-22T23:44:11.626Z,20.08
2022-10-22T23:46:40.362Z,20.90
2022-10-22T23:49:10.153Z,20.77
2022-10-22T23:51:38.989Z,21.35
2022-10-22T23:54:09.547Z,20.73
2022-10-22T23:56:38.064Z,22.20
2022-10-22T23:59:08.776Z,21.70
